sensor_id;sensor_type;location;lat;lon;timestamp;pressure;altitude;pressure_sealevel;temperature;humidity
36664;BME280;53333;51.976;20.144;2023-04-25T00:01:03;98981.34;;;13.83;63.98
36664;BME280;53333;51.976;20.144;2023-04-25T00:03:39;98983.16;;;13.82;64.17
36664;BME280;53333;51.976;20.144;2023-04-25T00:06:13;98981.69;;;13.78;64.11
36664;BME280;53333;51.976;20.144;2023-04-25T00:08:46;98981.34;;;13.71;64.30
36664;BME280;53333;51.976;20.144;2023-04-25T00:11:19;98973.53;;;13.68;64.39
36664;BME280;53333;51.976;20.144;2023-04-25T00:13:52;98966.69;;;13.64;64.42
36664;BME280;53333;51.976;20.144;2023-04-25T00:16:25;98967.94;;;13.71;63.42
36664;BME280;53333;51.976;20.144;2023-04-25T00:19:00;98966.22;;;13.59;64.14
36664;BME280;53333;51.976;20.144;2023-04-25T00:21:33;98975.63;;;13.53;64.19
36664;BME280;53333;51.976;20.144;2023-04-25T00:24:07;98968.78;;;13.49;64.41
36664;BME280;53333;51.976;20.144;2023-04-25T00:26:40;98965.38;;;13.47;64.42
36664;BME280;53333;51.976;20.144;2023-04-25T00:29:13;98974.63;;;13.43;64.50
36664;BME280;53333;51.976;20.144;2023-04-25T00:31:46;98980.00;;;13.43;64.68
36664;BME280;53333;51.976;20.144;2023-04-25T00:34:20;98986.47;;;13.40;64.62
36664;BME280;53333;51.976;20.144;2023-04-25T00:36:53;98981.47;;;13.36;64.82
36664;BME280;53333;51.976;20.144;2023-04-25T00:39:37;98975.44;;;13.32;64.82
36664;BME280;53333;51.976;20.144;2023-04-25T00:42:10;98974.84;;;13.29;64.92
36664;BME280;53333;51.976;20.144;2023-04-25T00:44:44;98964.25;;;13.27;64.91
36664;BME280;53333;51.976;20.144;2023-04-25T00:47:17;98966.47;;;13.33;64.04
36664;BME280;53333;51.976;20.144;2023-04-25T00:49:52;98976.31;;;13.21;64.54
36664;BME280;53333;51.976;20.144;2023-04-25T00:52:25;98967.63;;;13.18;64.72
36664;BME280;53333;51.976;20.144;2023-04-25T00:54:59;98967.91;;;13.15;65.00
36664;BME280;53333;51.976;20.144;2023-04-25T00:57:32;98967.91;;;13.15;64.96
36664;BME280;53333;51.976;20.144;2023-04-25T01:00:07;98957.31;;;13.13;65.02
36664;BME280;53333;51.976;20.144;2023-04-25T01:02:41;98961.78;;;13.13;65.20
36664;BME280;53333;51.976;20.144;2023-04-25T01:05:16;98951.94;;;13.13;65.26
36664;BME280;53333;51.976;20.144;2023-04-25T01:07:50;98960.72;;;13.15;65.21
36664;BME280;53333;51.976;20.144;2023-04-25T01:10:23;98964.34;;;13.14;65.06
36664;BME280;53333;51.976;20.144;2023-04-25T01:12:56;98960.94;;;13.12;65.15
36664;BME280;53333;51.976;20.144;2023-04-25T01:15:29;98959.34;;;13.09;65.16
36664;BME280;53333;51.976;20.144;2023-04-25T01:18:03;98955.22;;;13.05;65.17
36664;BME280;53333;51.976;20.144;2023-04-25T01:20:37;98959.81;;;13.03;65.21
36664;BME280;53333;51.976;20.144;2023-04-25T01:23:13;98956.53;;;13.00;65.42
36664;BME280;53333;51.976;20.144;2023-04-25T01:25:47;98959.34;;;12.98;65.29
36664;BME280;53333;51.976;20.144;2023-04-25T01:28:20;98955.94;;;13.07;64.60
36664;BME280;53333;51.976;20.144;2023-04-25T01:30:54;98951.28;;;12.98;65.07
36664;BME280;53333;51.976;20.144;2023-04-25T01:33:27;98952.41;;;12.96;65.02
36664;BME280;53333;51.976;20.144;2023-04-25T01:36:00;98952.53;;;12.94;65.04
36664;BME280;53333;51.976;20.144;2023-04-25T01:38:35;98955.19;;;12.94;64.99
36664;BME280;53333;51.976;20.144;2023-04-25T01:41:08;98956.03;;;12.95;64.96
36664;BME280;53333;51.976;20.144;2023-04-25T01:43:41;98954.22;;;12.95;64.94
36664;BME280;53333;51.976;20.144;2023-04-25T01:46:14;98960.56;;;12.94;65.06
36664;BME280;53333;51.976;20.144;2023-04-25T01:48:47;98958.72;;;12.95;64.96
36664;BME280;53333;51.976;20.144;2023-04-25T01:51:20;98958.84;;;12.93;64.93
36664;BME280;53333;51.976;20.144;2023-04-25T01:53:56;98952.88;;;12.89;65.00
36664;BME280;53333;51.976;20.144;2023-04-25T01:56:32;98951.28;;;12.87;64.96
36664;BME280;53333;51.976;20.144;2023-04-25T01:59:05;98953.09;;;12.86;64.98
36664;BME280;53333;51.976;20.144;2023-04-25T02:02:07;98958.47;;;12.86;65.00
36664;BME280;53333;51.976;20.144;2023-04-25T02:04:40;98956.75;;;12.85;64.99
36664;BME280;53333;51.976;20.144;2023-04-25T02:07:14;98951.50;;;12.84;64.83
36664;BME280;53333;51.976;20.144;2023-04-25T02:09:55;98961.72;;;12.79;64.96
36664;BME280;53333;51.976;20.144;2023-04-25T02:12:32;98960.13;;;12.76;64.92
36664;BME280;53333;51.976;20.144;2023-04-25T02:15:28;98960.13;;;12.76;64.86
36664;BME280;53333;51.976;20.144;2023-04-25T02:18:07;98954.88;;;12.75;64.92
36664;BME280;53333;51.976;20.144;2023-04-25T02:20:42;98962.19;;;12.72;64.89
36664;BME280;53333;51.976;20.144;2023-04-25T02:23:15;98951.97;;;12.78;64.32
36664;BME280;53333;51.976;20.144;2023-04-25T02:25:52;98958.28;;;12.65;64.55
36664;BME280;53333;51.976;20.144;2023-04-25T02:28:26;98964.84;;;12.61;64.79
36664;BME280;53333;51.976;20.144;2023-04-25T02:30:59;98963.34;;;12.57;64.97
36664;BME280;53333;51.976;20.144;2023-04-25T02:33:32;98964.34;;;12.56;65.09
36664;BME280;53333;51.976;20.144;2023-04-25T02:36:06;98957.28;;;12.55;65.22
36664;BME280;53333;51.976;20.144;2023-04-25T02:38:39;98947.81;;;12.62;64.52
36664;BME280;53333;51.976;20.144;2023-04-25T02:41:13;98953.38;;;12.48;65.21
36664;BME280;53333;51.976;20.144;2023-04-25T02:43:46;98955.41;;;12.44;65.46
36664;BME280;53333;51.976;20.144;2023-04-25T02:46:22;98949.19;;;12.44;65.70
36664;BME280;53333;51.976;20.144;2023-04-25T02:49:10;98950.28;;;12.41;65.90
36664;BME280;53333;51.976;20.144;2023-04-25T02:51:42;98951.50;;;12.37;65.94
36664;BME280;53333;51.976;20.144;2023-04-25T02:54:15;98953.44;;;12.35;66.12
36664;BME280;53333;51.976;20.144;2023-04-25T02:56:52;98959.03;;;12.32;66.59
36664;BME280;53333;51.976;20.144;2023-04-25T02:59:30;98968.13;;;12.29;66.70
36664;BME280;53333;51.976;20.144;2023-04-25T03:02:03;98968.34;;;12.26;66.80
36664;BME280;53333;51.976;20.144;2023-04-25T03:04:36;98967.84;;;12.21;66.99
36664;BME280;53333;51.976;20.144;2023-04-25T03:07:09;98969.13;;;12.15;67.29
36664;BME280;53333;51.976;20.144;2023-04-25T03:09:42;98970.47;;;12.10;67.38
36664;BME280;53333;51.976;20.144;2023-04-25T03:12:16;98967.50;;;12.02;67.72
36664;BME280;53333;51.976;20.144;2023-04-25T03:14:49;98972.09;;;11.99;67.89
36664;BME280;53333;51.976;20.144;2023-04-25T03:17:22;98967.84;;;11.97;67.95
36664;BME280;53333;51.976;20.144;2023-04-25T03:19:55;98974.25;;;11.94;68.01
36664;BME280;53333;51.976;20.144;2023-04-25T03:22:28;98970.84;;;11.92;68.26
36664;BME280;53333;51.976;20.144;2023-04-25T03:25:01;98966.41;;;11.91;68.13
36664;BME280;53333;51.976;20.144;2023-04-25T03:27:35;98970.19;;;11.89;68.38
36664;BME280;53333;51.976;20.144;2023-04-25T03:30:09;98968.69;;;11.85;68.56
36664;BME280;53333;51.976;20.144;2023-04-25T03:32:43;98969.88;;;11.80;68.50
36664;BME280;53333;51.976;20.144;2023-04-25T03:35:20;98969.47;;;11.74;68.60
36664;BME280;53333;51.976;20.144;2023-04-25T03:37:56;98973.56;;;11.67;68.92
36664;BME280;53333;51.976;20.144;2023-04-25T03:40:34;98975.69;;;11.61;68.95
36664;BME280;53333;51.976;20.144;2023-04-25T03:43:15;98976.91;;;11.57;69.20
36664;BME280;53333;51.976;20.144;2023-04-25T03:45:54;98975.38;;;11.53;69.18
36664;BME280;53333;51.976;20.144;2023-04-25T03:48:28;98975.59;;;11.50;69.17
36664;BME280;53333;51.976;20.144;2023-04-25T03:51:00;98983.84;;;11.47;69.30
36664;BME280;53333;51.976;20.144;2023-04-25T03:53:35;98977.75;;;11.45;69.46
36664;BME280;53333;51.976;20.144;2023-04-25T03:56:26;98980.66;;;11.42;69.42
36664;BME280;53333;51.976;20.144;2023-04-25T03:59:07;98981.63;;;11.41;69.65
36664;BME280;53333;51.976;20.144;2023-04-25T04:01:40;98987.94;;;11.40;69.59
36664;BME280;53333;51.976;20.144;2023-04-25T04:04:13;98989.75;;;11.39;69.64
36664;BME280;53333;51.976;20.144;2023-04-25T04:06:47;98992.31;;;11.41;69.92
36664;BME280;53333;51.976;20.144;2023-04-25T04:09:26;98986.88;;;11.42;69.68
36664;BME280;53333;51.976;20.144;2023-04-25T04:12:00;98994.91;;;11.42;69.60
36664;BME280;53333;51.976;20.144;2023-04-25T04:14:36;98997.47;;;11.44;69.65
36664;BME280;53333;51.976;20.144;2023-04-25T04:17:09;99003.03;;;11.41;69.52
36664;BME280;53333;51.976;20.144;2023-04-25T04:19:42;99006.66;;;11.40;69.60
36664;BME280;53333;51.976;20.144;2023-04-25T04:22:20;99000.47;;;11.39;69.55
36664;BME280;53333;51.976;20.144;2023-04-25T04:24:53;98996.16;;;11.37;69.54
36664;BME280;53333;51.976;20.144;2023-04-25T04:27:43;98998.72;;;11.38;69.39
36664;BME280;53333;51.976;20.144;2023-04-25T04:30:28;99006.88;;;11.37;69.38
36664;BME280;53333;51.976;20.144;2023-04-25T04:33:04;99009.53;;;11.37;69.38
36664;BME280;53333;51.976;20.144;2023-04-25T04:35:37;99001.72;;;11.34;69.15
36664;BME280;53333;51.976;20.144;2023-04-25T04:38:11;99011.56;;;11.33;69.27
36664;BME280;53333;51.976;20.144;2023-04-25T04:40:46;99010.69;;;11.33;69.47
36664;BME280;53333;51.976;20.144;2023-04-25T04:43:25;99006.34;;;11.32;69.20
36664;BME280;53333;51.976;20.144;2023-04-25T04:46:15;99015.19;;;11.32;69.17
36664;BME280;53333;51.976;20.144;2023-04-25T04:49:15;99015.31;;;11.31;69.03
36664;BME280;53333;51.976;20.144;2023-04-25T04:52:15;99013.94;;;11.25;68.92
36664;BME280;53333;51.976;20.144;2023-04-25T04:55:04;99014.34;;;11.19;68.74
36664;BME280;53333;51.976;20.144;2023-04-25T04:57:56;99012.84;;;11.15;68.69
36664;BME280;53333;51.976;20.144;2023-04-25T05:00:53;99019.38;;;11.11;68.69
36664;BME280;53333;51.976;20.144;2023-04-25T05:04:00;99018.06;;;11.03;68.28
36664;BME280;53333;51.976;20.144;2023-04-25T05:06:47;99030.16;;;10.96;68.19
36664;BME280;53333;51.976;20.144;2023-04-25T05:09:55;99028.97;;;10.87;68.05
36664;BME280;53333;51.976;20.144;2023-04-25T05:12:54;99036.53;;;10.81;68.13
36664;BME280;53333;51.976;20.144;2023-04-25T05:15:43;99039.50;;;10.76;68.16
36664;BME280;53333;51.976;20.144;2023-04-25T05:18:34;99035.31;;;10.72;68.01
36664;BME280;53333;51.976;20.144;2023-04-25T05:21:35;99043.66;;;10.67;67.93
36664;BME280;53333;51.976;20.144;2023-04-25T05:24:28;99048.22;;;10.65;67.88
36664;BME280;53333;51.976;20.144;2023-04-25T05:27:19;99052.19;;;10.60;67.85
36664;BME280;53333;51.976;20.144;2023-04-25T05:30:12;99056.94;;;10.54;67.81
36664;BME280;53333;51.976;20.144;2023-04-25T05:33:01;99053.63;;;10.51;67.96
36664;BME280;53333;51.976;20.144;2023-04-25T05:35:34;99059.94;;;10.50;68.13
36664;BME280;53333;51.976;20.144;2023-04-25T05:38:08;99058.97;;;10.51;67.88
36664;BME280;53333;51.976;20.144;2023-04-25T05:41:04;99062.28;;;10.54;67.92
36664;BME280;53333;51.976;20.144;2023-04-25T05:43:43;99066.59;;;10.57;67.98
36664;BME280;53333;51.976;20.144;2023-04-25T05:46:50;99067.22;;;10.61;67.60
36664;BME280;53333;51.976;20.144;2023-04-25T05:49:35;99070.78;;;10.61;67.40
36664;BME280;53333;51.976;20.144;2023-04-25T05:52:26;99072.38;;;10.64;67.60
36664;BME280;53333;51.976;20.144;2023-04-25T05:55:09;99070.38;;;10.67;67.31
36664;BME280;53333;51.976;20.144;2023-04-25T05:57:42;99081.81;;;10.69;66.87
36664;BME280;53333;51.976;20.144;2023-04-25T06:00:18;99080.06;;;10.68;66.68
36664;BME280;53333;51.976;20.144;2023-04-25T06:02:53;99076.75;;;10.65;66.45
36664;BME280;53333;51.976;20.144;2023-04-25T06:05:27;99079.53;;;10.63;66.33
36664;BME280;53333;51.976;20.144;2023-04-25T06:08:00;99082.94;;;10.65;66.27
36664;BME280;53333;51.976;20.144;2023-04-25T06:10:34;99084.66;;;10.66;65.98
36664;BME280;53333;51.976;20.144;2023-04-25T06:13:07;99085.41;;;10.68;65.80
36664;BME280;53333;51.976;20.144;2023-04-25T06:15:41;99090.56;;;10.71;65.73
36664;BME280;53333;51.976;20.144;2023-04-25T06:18:14;99087.50;;;10.78;65.68
36664;BME280;53333;51.976;20.144;2023-04-25T06:20:47;99091.69;;;10.82;65.62
36664;BME280;53333;51.976;20.144;2023-04-25T06:23:22;99092.13;;;10.88;65.43
36664;BME280;53333;51.976;20.144;2023-04-25T06:26:05;99095.22;;;10.95;65.51
36664;BME280;53333;51.976;20.144;2023-04-25T06:28:41;99099.28;;;11.01;65.20
36664;BME280;53333;51.976;20.144;2023-04-25T06:31:14;99098.69;;;11.10;65.01
36664;BME280;53333;51.976;20.144;2023-04-25T06:33:48;99096.69;;;11.14;64.65
36664;BME280;53333;51.976;20.144;2023-04-25T06:36:22;99096.69;;;11.26;64.34
36664;BME280;53333;51.976;20.144;2023-04-25T06:38:59;99094.53;;;11.19;64.37
36664;BME280;53333;51.976;20.144;2023-04-25T06:41:33;99094.03;;;11.26;64.46
36664;BME280;53333;51.976;20.144;2023-04-25T06:44:10;99097.97;;;11.34;64.11
36664;BME280;53333;51.976;20.144;2023-04-25T06:46:55;99087.06;;;11.37;63.60
36664;BME280;53333;51.976;20.144;2023-04-25T06:49:28;99084.06;;;11.41;63.54
36664;BME280;53333;51.976;20.144;2023-04-25T06:52:01;99092.63;;;11.47;63.54
36664;BME280;53333;51.976;20.144;2023-04-25T06:54:34;99093.25;;;11.50;63.07
36664;BME280;53333;51.976;20.144;2023-04-25T06:57:23;99086.22;;;11.49;62.89
36664;BME280;53333;51.976;20.144;2023-04-25T06:59:59;99092.41;;;11.50;62.62
36664;BME280;53333;51.976;20.144;2023-04-25T07:02:33;99101.06;;;11.53;62.42
36664;BME280;53333;51.976;20.144;2023-04-25T07:05:07;99090.06;;;11.58;62.60
36664;BME280;53333;51.976;20.144;2023-04-25T07:07:40;99096.72;;;11.65;62.25
36664;BME280;53333;51.976;20.144;2023-04-25T07:10:14;99092.63;;;11.85;62.20
36664;BME280;53333;51.976;20.144;2023-04-25T07:12:48;99088.03;;;11.87;61.79
36664;BME280;53333;51.976;20.144;2023-04-25T07:15:21;99089.09;;;11.97;61.44
36664;BME280;53333;51.976;20.144;2023-04-25T07:17:54;99087.50;;;12.08;61.17
36664;BME280;53333;51.976;20.144;2023-04-25T07:20:27;99089.69;;;12.14;60.69
36664;BME280;53333;51.976;20.144;2023-04-25T07:23:02;99086.81;;;12.17;60.54
36664;BME280;53333;51.976;20.144;2023-04-25T07:25:35;99092.56;;;12.24;60.39
36664;BME280;53333;51.976;20.144;2023-04-25T07:28:10;99089.34;;;12.31;60.27
36664;BME280;53333;51.976;20.144;2023-04-25T07:30:43;99091.47;;;12.39;60.20
36664;BME280;53333;51.976;20.144;2023-04-25T07:33:16;99096.88;;;12.50;60.28
36664;BME280;53333;51.976;20.144;2023-04-25T07:35:52;99089.03;;;12.60;60.16
36664;BME280;53333;51.976;20.144;2023-04-25T07:38:25;99103.97;;;12.76;59.95
36664;BME280;53333;51.976;20.144;2023-04-25T07:40:59;99098.09;;;12.70;59.70
36664;BME280;53333;51.976;20.144;2023-04-25T07:46:09;99095.94;;;12.76;59.19
36664;BME280;53333;51.976;20.144;2023-04-25T07:48:42;99107.25;;;12.79;58.87
36664;BME280;53333;51.976;20.144;2023-04-25T07:51:15;99101.56;;;12.84;58.65
36664;BME280;53333;51.976;20.144;2023-04-25T07:53:48;99095.97;;;12.87;58.40
36664;BME280;53333;51.976;20.144;2023-04-25T07:56:22;99098.53;;;12.88;58.21
36664;BME280;53333;51.976;20.144;2023-04-25T07:58:56;99102.28;;;12.86;57.91
36664;BME280;53333;51.976;20.144;2023-04-25T08:01:33;99095.97;;;12.87;57.99
36664;BME280;53333;51.976;20.144;2023-04-25T08:04:09;99102.19;;;12.87;57.64
36664;BME280;53333;51.976;20.144;2023-04-25T08:06:53;99103.69;;;12.92;57.53
36664;BME280;53333;51.976;20.144;2023-04-25T08:09:30;99105.78;;;12.99;57.42
36664;BME280;53333;51.976;20.144;2023-04-25T08:12:08;99113.88;;;13.11;57.08
36664;BME280;53333;51.976;20.144;2023-04-25T08:14:41;99107.34;;;13.26;56.83
36664;BME280;53333;51.976;20.144;2023-04-25T08:17:16;99111.53;;;13.41;56.38
36664;BME280;53333;51.976;20.144;2023-04-25T08:19:49;99105.13;;;13.55;56.30
36664;BME280;53333;51.976;20.144;2023-04-25T08:22:30;99103.19;;;13.69;55.81
36664;BME280;53333;51.976;20.144;2023-04-25T08:25:30;99103.06;;;13.81;55.54
36664;BME280;53333;51.976;20.144;2023-04-25T08:28:03;99104.44;;;13.98;55.18
36664;BME280;53333;51.976;20.144;2023-04-25T08:30:36;99103.22;;;14.14;54.86
36664;BME280;53333;51.976;20.144;2023-04-25T08:33:12;99098.06;;;14.33;54.50
36664;BME280;53333;51.976;20.144;2023-04-25T08:36:12;99101.06;;;14.51;53.66
36664;BME280;53333;51.976;20.144;2023-04-25T08:38:52;99103.63;;;14.53;53.35
36664;BME280;53333;51.976;20.144;2023-04-25T08:41:26;99116.09;;;14.54;52.99
36664;BME280;53333;51.976;20.144;2023-04-25T08:44:00;99109.00;;;14.53;52.97
36664;BME280;53333;51.976;20.144;2023-04-25T08:46:38;99114.38;;;14.53;52.83
36664;BME280;53333;51.976;20.144;2023-04-25T08:49:23;99111.81;;;14.51;52.68
36664;BME280;53333;51.976;20.144;2023-04-25T08:51:59;99114.03;;;14.46;52.39
36664;BME280;53333;51.976;20.144;2023-04-25T08:54:34;99119.41;;;14.46;52.73
36664;BME280;53333;51.976;20.144;2023-04-25T08:57:11;99123.06;;;14.45;52.73
36664;BME280;53333;51.976;20.144;2023-04-25T08:59:45;99127.84;;;14.42;52.87
36664;BME280;53333;51.976;20.144;2023-04-25T09:02:20;99126.38;;;14.38;52.69
36664;BME280;53333;51.976;20.144;2023-04-25T09:04:57;99123.44;;;14.29;52.85
36664;BME280;53333;51.976;20.144;2023-04-25T09:07:29;99136.50;;;14.23;52.61
36664;BME280;53333;51.976;20.144;2023-04-25T09:10:03;99127.84;;;14.19;53.09
36664;BME280;53333;51.976;20.144;2023-04-25T09:12:40;99132.88;;;14.24;52.96
36664;BME280;53333;51.976;20.144;2023-04-25T09:15:13;99134.31;;;14.39;53.00
36664;BME280;53333;51.976;20.144;2023-04-25T09:18:14;99137.38;;;14.34;52.30
36664;BME280;53333;51.976;20.144;2023-04-25T09:21:07;99142.50;;;14.38;52.31
36664;BME280;53333;51.976;20.144;2023-04-25T09:23:48;99152.75;;;14.32;51.91
36664;BME280;53333;51.976;20.144;2023-04-25T09:26:25;99147.72;;;14.28;51.84
36664;BME280;53333;51.976;20.144;2023-04-25T09:29:05;99147.25;;;14.23;51.62
36664;BME280;53333;51.976;20.144;2023-04-25T09:31:42;99150.31;;;14.18;52.09
36664;BME280;53333;51.976;20.144;2023-04-25T09:34:16;99150.19;;;13.97;51.60
36664;BME280;53333;51.976;20.144;2023-04-25T09:37:01;99151.13;;;13.85;52.31
36664;BME280;53333;51.976;20.144;2023-04-25T09:39:54;99152.81;;;13.63;51.79
36664;BME280;53333;51.976;20.144;2023-04-25T09:42:28;99161.53;;;13.42;52.27
36664;BME280;53333;51.976;20.144;2023-04-25T09:45:03;99167.19;;;13.26;52.50
36664;BME280;53333;51.976;20.144;2023-04-25T09:47:41;99167.47;;;13.11;52.70
36664;BME280;53333;51.976;20.144;2023-04-25T09:50:17;99160.47;;;12.97;52.82
36664;BME280;53333;51.976;20.144;2023-04-25T09:53:04;99158.88;;;12.94;53.20
36664;BME280;53333;51.976;20.144;2023-04-25T09:56:04;99164.53;;;13.02;53.39
36664;BME280;53333;51.976;20.144;2023-04-25T09:58:40;99161.63;;;13.05;53.03
36664;BME280;53333;51.976;20.144;2023-04-25T10:01:14;99162.13;;;13.11;52.99
36664;BME280;53333;51.976;20.144;2023-04-25T10:04:05;99160.94;;;13.15;52.77
36664;BME280;53333;51.976;20.144;2023-04-25T10:06:56;99166.69;;;13.21;53.21
36664;BME280;53333;51.976;20.144;2023-04-25T10:09:33;99169.53;;;13.31;52.82
36664;BME280;53333;51.976;20.144;2023-04-25T10:12:07;99171.44;;;13.42;52.86
36664;BME280;53333;51.976;20.144;2023-04-25T10:14:40;99168.34;;;13.71;52.59
36664;BME280;53333;51.976;20.144;2023-04-25T10:17:14;99171.41;;;13.89;52.46
36664;BME280;53333;51.976;20.144;2023-04-25T10:19:47;99167.16;;;14.09;51.63
36664;BME280;53333;51.976;20.144;2023-04-25T10:22:25;99169.97;;;14.30;51.43
36664;BME280;53333;51.976;20.144;2023-04-25T10:25:04;99168.50;;;14.37;50.99
36664;BME280;53333;51.976;20.144;2023-04-25T10:27:38;99173.97;;;14.35;50.69
36664;BME280;53333;51.976;20.144;2023-04-25T10:30:13;99172.66;;;14.41;50.79
36664;BME280;53333;51.976;20.144;2023-04-25T10:32:48;99175.81;;;14.58;51.12
36664;BME280;53333;51.976;20.144;2023-04-25T10:35:25;99164.44;;;14.77;50.51
36664;BME280;53333;51.976;20.144;2023-04-25T10:37:59;99161.94;;;14.96;50.13
36664;BME280;53333;51.976;20.144;2023-04-25T10:40:33;99159.53;;;15.25;49.27
36664;BME280;53333;51.976;20.144;2023-04-25T10:43:36;99164.94;;;15.47;49.22
36664;BME280;53333;51.976;20.144;2023-04-25T10:46:17;99172.50;;;15.53;48.56
36664;BME280;53333;51.976;20.144;2023-04-25T10:48:50;99166.03;;;15.44;48.22
36664;BME280;53333;51.976;20.144;2023-04-25T10:51:26;99166.81;;;15.35;48.07
36664;BME280;53333;51.976;20.144;2023-04-25T10:54:11;99159.03;;;15.32;48.32
36664;BME280;53333;51.976;20.144;2023-04-25T10:56:45;99165.66;;;15.49;48.65
36664;BME280;53333;51.976;20.144;2023-04-25T10:59:19;99163.34;;;15.44;48.22
36664;BME280;53333;51.976;20.144;2023-04-25T11:01:53;99159.63;;;15.56;48.33
36664;BME280;53333;51.976;20.144;2023-04-25T11:04:29;99162.56;;;15.74;47.68
36664;BME280;53333;51.976;20.144;2023-04-25T11:07:09;99161.16;;;15.91;47.20
36664;BME280;53333;51.976;20.144;2023-04-25T11:09:44;99158.78;;;15.98;47.24
36664;BME280;53333;51.976;20.144;2023-04-25T11:12:19;99153.81;;;16.03;47.03
36664;BME280;53333;51.976;20.144;2023-04-25T11:14:58;99151.13;;;16.03;47.27
36664;BME280;53333;51.976;20.144;2023-04-25T11:17:33;99148.72;;;16.00;47.15
36664;BME280;53333;51.976;20.144;2023-04-25T11:20:07;99150.69;;;15.98;46.60
36664;BME280;53333;51.976;20.144;2023-04-25T11:22:44;99155.38;;;15.96;46.36
36664;BME280;53333;51.976;20.144;2023-04-25T11:25:17;99151.34;;;15.90;46.27
36664;BME280;53333;51.976;20.144;2023-04-25T11:27:52;99139.88;;;15.88;46.55
36664;BME280;53333;51.976;20.144;2023-04-25T11:30:26;99147.25;;;15.86;46.32
36664;BME280;53333;51.976;20.144;2023-04-25T11:33:00;99143.59;;;15.76;45.71
36664;BME280;53333;51.976;20.144;2023-04-25T11:35:34;99146.88;;;15.58;45.82
36664;BME280;53333;51.976;20.144;2023-04-25T11:38:07;99149.94;;;15.33;46.10
36664;BME280;53333;51.976;20.144;2023-04-25T11:40:41;99144.41;;;15.13;46.04
36664;BME280;53333;51.976;20.144;2023-04-25T11:43:15;99150.59;;;14.93;46.22
36664;BME280;53333;51.976;20.144;2023-04-25T11:45:52;99147.59;;;14.75;46.82
36664;BME280;53333;51.976;20.144;2023-04-25T11:48:25;99149.94;;;14.68;47.23
36664;BME280;53333;51.976;20.144;2023-04-25T11:51:00;99147.63;;;14.63;46.96
36664;BME280;53333;51.976;20.144;2023-04-25T11:53:33;99149.69;;;14.60;47.25
36664;BME280;53333;51.976;20.144;2023-04-25T11:56:10;99151.63;;;14.58;47.25
36664;BME280;53333;51.976;20.144;2023-04-25T11:59:04;99150.44;;;14.62;47.46
36664;BME280;53333;51.976;20.144;2023-04-25T12:01:39;99152.38;;;14.60;47.73
36664;BME280;53333;51.976;20.144;2023-04-25T12:04:17;99143.34;;;14.61;47.98
36664;BME280;53333;51.976;20.144;2023-04-25T12:06:52;99145.06;;;14.62;47.61
36664;BME280;53333;51.976;20.144;2023-04-25T12:09:28;99152.38;;;14.60;47.37
36664;BME280;53333;51.976;20.144;2023-04-25T12:12:02;99148.94;;;14.58;47.22
36664;BME280;53333;51.976;20.144;2023-04-25T12:14:37;99147.63;;;14.52;46.95
36664;BME280;53333;51.976;20.144;2023-04-25T12:17:10;99153.97;;;14.51;47.48
36664;BME280;53333;51.976;20.144;2023-04-25T12:19:43;99154.94;;;14.61;47.31
36664;BME280;53333;51.976;20.144;2023-04-25T12:22:20;99154.56;;;14.54;47.17
36664;BME280;53333;51.976;20.144;2023-04-25T12:24:54;99151.16;;;14.52;47.11
36664;BME280;53333;51.976;20.144;2023-04-25T12:27:30;99152.75;;;14.55;47.38
36664;BME280;53333;51.976;20.144;2023-04-25T12:30:06;99156.28;;;14.56;46.90
36664;BME280;53333;51.976;20.144;2023-04-25T12:32:42;99160.44;;;14.60;46.93
36664;BME280;53333;51.976;20.144;2023-04-25T12:35:15;99157.50;;;14.63;46.96
36664;BME280;53333;51.976;20.144;2023-04-25T12:37:48;99153.84;;;14.64;47.02
36664;BME280;53333;51.976;20.144;2023-04-25T12:40:21;99152.38;;;14.60;46.82
36664;BME280;53333;51.976;20.144;2023-04-25T12:42:54;99147.75;;;14.62;47.08
36664;BME280;53333;51.976;20.144;2023-04-25T12:45:28;99156.28;;;14.67;47.17
36664;BME280;53333;51.976;20.144;2023-04-25T12:48:01;99162.13;;;14.72;47.33
36664;BME280;53333;51.976;20.144;2023-04-25T12:50:35;99153.69;;;14.77;47.50
36664;BME280;53333;51.976;20.144;2023-04-25T12:53:07;99157.72;;;14.82;47.40
36664;BME280;53333;51.976;20.144;2023-04-25T12:55:40;99158.44;;;14.84;47.63
36664;BME280;53333;51.976;20.144;2023-04-25T12:58:13;99159.28;;;14.85;47.80
36664;BME280;53333;51.976;20.144;2023-04-25T13:00:47;99157.19;;;14.88;48.46
36664;BME280;53333;51.976;20.144;2023-04-25T13:03:20;99165.25;;;14.88;48.46
36664;BME280;53333;51.976;20.144;2023-04-25T13:05:54;99153.03;;;14.96;48.21
36664;BME280;53333;51.976;20.144;2023-04-25T13:08:27;99149.91;;;14.79;48.60
36664;BME280;53333;51.976;20.144;2023-04-25T13:11:00;99149.41;;;14.74;48.95
36664;BME280;53333;51.976;20.144;2023-04-25T13:13:33;99156.75;;;14.72;49.16
36664;BME280;53333;51.976;20.144;2023-04-25T13:16:07;99152.38;;;14.71;49.36
36664;BME280;53333;51.976;20.144;2023-04-25T13:18:41;99148.94;;;14.69;49.64
36664;BME280;53333;51.976;20.144;2023-04-25T13:21:14;99156.28;;;14.67;49.90
36664;BME280;53333;51.976;20.144;2023-04-25T13:23:47;99158.13;;;14.66;49.84
36664;BME280;53333;51.976;20.144;2023-04-25T13:26:20;99150.06;;;14.66;50.06
36664;BME280;53333;51.976;20.144;2023-04-25T13:28:53;99156.16;;;14.68;50.57
36664;BME280;53333;51.976;20.144;2023-04-25T13:31:27;99147.97;;;14.70;50.88
36664;BME280;53333;51.976;20.144;2023-04-25T13:34:00;99149.69;;;14.71;51.06
36664;BME280;53333;51.976;20.144;2023-04-25T13:36:34;99150.53;;;14.71;51.10
36664;BME280;53333;51.976;20.144;2023-04-25T13:39:07;99152.50;;;14.69;51.35
36664;BME280;53333;51.976;20.144;2023-04-25T13:41:40;99158.25;;;14.65;51.54
36664;BME280;53333;51.976;20.144;2023-04-25T13:44:12;99167.41;;;14.62;52.04